Stations météo

réclame
Mon MeteoGroup
Oberstdorf, Allemagne (10948): Température de l'air & dewpoint: 13.07.2018 19:00:00 - 19.07.2018 19:00:00 (CEST)Oberstdorf, Allemagne (10948): Température de l'air 5cm & Température de l'air -5cm: 13.07.2018 19:00:00 - 19.07.2018 19:00:00 (CEST)Oberstdorf, Allemagne (10948): Température de l'air -20cm & Température de l'air -100cm: 13.07.2018 19:00:00 - 19.07.2018 19:00:00 (CEST)Oberstdorf, Allemagne (10948): Vitesse du vent & gusts: 13.07.2018 19:00:00 - 19.07.2018 19:00:00 (CEST)Oberstdorf, Allemagne (10948): Direction du vent: 13.07.2018 19:00:00 - 19.07.2018 19:00:00 (CEST)Oberstdorf, Allemagne (10948): visibility: 13.07.2018 19:00:00 - 19.07.2018 19:00:00 (CEST)Oberstdorf, Allemagne (10948): Ensoleillement: 13.07.2018 19:00:00 - 19.07.2018 19:00:00 (CEST)Oberstdorf, Allemagne (10948): Quantités de précipitations: 13.07.2018 19:00:00 - 19.07.2018 19:00:00 (CEST)
Date & Time tt [°C] td [°C] tt 5cm [°C] tt -5cm [°C] tt -20cm [°C] tt -100cm [°C] ff [km/h] ff [knt] fx [km/h] fx [knt] dd vv [km] sd [min] rr [mm]
19.07.2018 19:00:00 24,9 11,1 26,1 23,9 20,2 17,2 19 11 31 17 NNW 34 60 0,0
19.07.2018 18:00:00 25,7 10,7 28,0 23,5 19,9 17,2 18 10 30 16 NNW 27 60 0,0
19.07.2018 17:00:00 26,2 11,0 28,6 22,9 19,7 17,2 19 11 29 16 N 25 60 0,0
19.07.2018 16:00:00 26,0 9,6 30,0 22,2 19,5 17,2 17 9 27 15 NNW 34 60 0,0
19.07.2018 15:00:00 26,3 10,0 30,0 21,4 19,3 17,1 16 8 28 15 NNW 28 60 0,0
19.07.2018 14:00:00 25,7 11,3 29,5 20,7 19,3 17,1 17 9 27 14 NNW 22 60 0,0
19.07.2018 13:00:00 24,7 11,1 29,6 19,9 19,3 17,1 16 9 25 14 NNW 26 60 0,0
19.07.2018 12:00:00 24,2 10,8 29,1 19,3 19,3 17,1 11 6 18 10 N 32 60 0,0
19.07.2018 11:00:00 22,3 9,6 26,7 18,9 19,4 17,1 10 5 16 9 N 30 59 0,0
19.07.2018 10:00:00 22,0 11,6 24,1 18,7 19,6 17,1 1 0 6 3 NNW 41 60 0,0
19.07.2018 09:00:00 18,7 10,5 20,0 18,8 19,8 17,1 3 1 6 3 S 42 60 0,0
19.07.2018 08:00:00 14,1 9,6 15,0 19,1 19,9 17,1 3 2 8 4 S 35 48 0,0
19.07.2018 07:00:00 10,2 8,8 9,0 19,5 20,1 17,1 8 4 10 5 SE 27 0 0,0
19.07.2018 06:00:00 9,2 7,6 7,7 19,9 20,2 17,1 4 2 9 5 SSE 25 0 0,0
19.07.2018 05:00:00 9,0 7,9 7,5 20,3 20,3 17,1 5 3 9 5 SSE 17 0 0,0
19.07.2018 04:00:00 10,5 9,0 8,6 20,8 20,4 17,0 6 3 10 6 S 28 0 0,0
19.07.2018 03:00:00 10,1 8,6 7,9 21,2 20,5 17,0 4 2 8 5 SE 24 0 0,0
19.07.2018 02:00:00 10,5 8,7 9,0 21,7 20,5 17,0 7 4 9 5 SE 28 0 0,0
19.07.2018 01:00:00 11,3 9,1 9,9 22,2 20,5 17,0 5 3 10 5 SSE 25 0 0,0
19.07.2018 00:00:00 13,1 9,7 11,2 22,7 20,5 17,0 7 4 9 5 SE 36 0 0,0
18.07.2018 23:00:00 14,9 10,2 12,4 23,1 20,3 17,0 10 5 13 7 SSE 39 0 0,0
18.07.2018 22:00:00 15,6 10,9 13,4 23,4 20,2 17,0 8 4 16 8 SSE 36 0 0,0
18.07.2018 21:00:00 18,7 11,4 17,1 23,5 19,9 17,0 11 6 17 9 SSE 40 28 0,0
18.07.2018 20:00:00 22,1 11,3 22,9 23,5 19,7 17,0 9 5 15 8 S 30 60 0,0
18.07.2018 19:00:00 24,8 10,8 26,6 23,2 19,4 17,0 11 6 20 11 NW 45 57 0,0
18.07.2018 18:00:00 25,8 10,4 29,1 22,7 19,1 17,0 10 6 24 13 NNW 36 59 0,0
18.07.2018 17:00:00 25,9 9,9 29,1 22,1 18,9 17,0 15 8 28 15 NNW 31 60 0,0
18.07.2018 16:00:00 25,5 10,0 29,6 21,4 18,7 17,0 16 8 24 13 NNW 21 60 0,0
18.07.2018 15:00:00 25,7 10,1 29,4 20,6 18,5 17,0 12 6 25 13 N 27 60 0,0
18.07.2018 14:00:00 25,6 10,2 29,6 19,8 18,4 17,0 11 6 26 14 NNW 36 60 0,0
18.07.2018 13:00:00 24,4 10,3 30,2 19,2 18,4 17,0 11 6 21 11 NNW 27 60 0,0
18.07.2018 12:00:00 23,4 10,0 28,0 18,6 18,4 17,0 10 5 22 12 NNW 36 60 0,0
18.07.2018 11:00:00 23,2 10,9 26,9 18,2 18,5 17,0 8 4 13 7 NNE 39 60 0,0
18.07.2018 10:00:00 21,5 11,5 23,9 18,0 18,5 17,0 3 2 9 5 E 42 60 0,0
18.07.2018 09:00:00 18,1 11,5 20,1 18,0 18,6 17,0 4 2 8 4 S 43 31 0,0
18.07.2018 08:00:00 15,4 12,1 16,0 18,1 18,7 17,0 5 3 7 4 SSE 31 11 0,0
18.07.2018 07:00:00 14,5 12,1 14,4 18,3 18,8 17,0 5 3 9 5 S 28 0 0,0
18.07.2018 06:00:00 14,1 11,9 13,7 18,4 18,9 17,0 4 2 10 5 SSW 33 0 0,0
18.07.2018 05:00:00 14,2 11,3 13,5 18,6 19,0 17,0 6 4 8 5 S 44 0 0,0
18.07.2018 04:00:00 13,6 10,8 12,5 18,9 19,0 17,0 5 3 10 5 S 38 0 0,0
18.07.2018 03:00:00 14,1 11,0 13,5 19,1 19,1 17,0 4 2 10 5 S 46 0 0,0
18.07.2018 02:00:00 14,9 10,2 14,2 19,4 19,1 17,0 9 5 17 9 S 44 0 0,0
18.07.2018 01:00:00 13,9 10,2 13,4 19,7 19,2 17,0 8 5 11 6 S 45 0 0,0
18.07.2018 00:00:00 14,2 10,2 13,0 20,0 19,2 17,0 10 5 15 8 S 44 0 0,0
17.07.2018 23:00:00 14,6 10,5 13,2 20,2 19,1 17,0 9 5 13 7 SSE 45 0 0,0
17.07.2018 22:00:00 15,1 11,2 14,4 20,5 19,1 17,0 11 6 18 10 S 43 0 0,0
17.07.2018 21:00:00 17,0 11,3 16,5 20,6 19,0 17,0 12 6 14 8 SSE 51 1 0,0
17.07.2018 20:00:00 20,4 9,7 19,2 20,6 18,8 17,0 4 2 14 8 SE 56 10 0,0
17.07.2018 19:00:00 22,3 8,9 22,4 20,5 18,7 17,0 6 3 13 7 ESE 58 18 0,0
17.07.2018 18:00:00 21,6 8,3 21,8 20,4 18,6 17,0 7 4 22 12 W 63 5 0,0
17.07.2018 17:00:00 23,2 9,7 26,9 20,1 18,4 17,0 11 6 31 17 NNW 43 22 0,0
17.07.2018 16:00:00 22,7 7,6 23,7 19,6 18,3 17,0 18 10 27 15 WNW 48 41 0,0
17.07.2018 15:00:00 24,3 9,0 27,3 19,1 18,3 17,0 12 6 22 12 N 37 49 0,0
17.07.2018 14:00:00 22,8 9,9 26,2 18,7 18,2 17,0 9 5 22 12 E 36 40 0,0
17.07.2018 13:00:00 21,4 10,5 22,3 18,3 18,2 17,0 6 3 11 6 NE 47 15 0,0
17.07.2018 12:00:00 21,0 11,0 22,1 17,9 18,3 17,0 6 3 8 4 SSE 47 10 0,0
17.07.2018 11:00:00 20,6 9,7 22,0 17,6 18,4 17,0 8 4 14 8 SE 46 38 0,0
17.07.2018 10:00:00 19,6 13,7 22,1 17,5 18,5 17,0 7 4 13 7 SSE 35 35 0,0
17.07.2018 09:00:00 16,0 12,7 16,4 17,5 18,6 17,0 5 3 9 5 S 34 7 0,0
17.07.2018 08:00:00 13,5 11,6 13,0 17,7 18,8 17,0 2 1 8 4 W 24 25 0,0
17.07.2018 07:00:00 11,7 10,9 11,1 17,9 18,9 17,0 3 1 8 4 S 15 0 0,0
17.07.2018 06:00:00 12,0 10,7 10,4 18,2 19,0 17,0 5 3 12 7 SSE 22 0 0,0
17.07.2018 05:00:00 11,7 11,0 10,8 18,5 19,1 17,0 4 2 10 5 NE 21 0 0,0
17.07.2018 04:00:00 10,6 9,8 9,4 18,8 19,2 17,0 5 3 8 5 S 11 0 0,0
17.07.2018 03:00:00 12,3 11,5 10,9 19,1 19,3 17,0 0 0 10 5 N 18 0 0,0
17.07.2018 02:00:00 11,8 10,9 10,7 19,4 19,4 17,0 5 3 9 5 SE 18 0 0,0
17.07.2018 01:00:00 12,9 11,9 10,8 19,8 19,4 17,0 6 3 7 4 SE 25 0 0,0
17.07.2018 00:00:00 13,8 12,6 12,1 20,1 19,4 17,0 5 3 11 6 S 26 0 0,0
16.07.2018 23:00:00 14,8 12,5 13,4 20,3 19,4 17,0 8 4 14 7 SSE 29 0 0,0
16.07.2018 22:00:00 16,3 13,0 15,2 20,6 19,4 17,0 9 5 15 8 SSE 38 0 0,0
16.07.2018 21:00:00 17,6 13,1 16,2 20,8 19,3 17,0 10 5 21 12 SE 47 31 0,0
16.07.2018 20:00:00 21,7 11,8 21,5 20,9 19,2 17,0 14 8 22 12 NNW 47 36 0,0
16.07.2018 19:00:00 21,7 11,5 21,0 21,1 19,1 17,0 17 9 32 17 NNW 52 21 0,0
16.07.2018 18:00:00 22,7 11,2 22,8 21,0 19,0 17,0 18 10 26 14 N 52 12 0,0
16.07.2018 17:00:00 24,2 10,0 25,3 20,8 18,8 17,0 13 7 20 11 N 70 6 0,0
16.07.2018 16:00:00 23,2 9,7 24,2 20,6 18,7 17,0 10 6 17 9 S 70 22 0,0
16.07.2018 15:00:00 23,8 8,9 25,3 20,1 18,6 17,0 11 6 21 11 N 70 22 0,0
16.07.2018 14:00:00 23,9 10,1 25,9 19,4 18,5 17,0 14 7 22 12 NW 47 50 0,0
16.07.2018 13:00:00 24,0 11,0 27,7 18,7 18,5 16,9 6 4 17 9 NNW 37 60 0,0
16.07.2018 12:00:00 22,1 10,7 25,6 18,2 18,6 16,9 5 3 10 5 SE 60 58 0,0
16.07.2018 11:00:00 20,4 11,9 23,8 17,9 18,7 16,9 4 2 8 5 W 54 59 0,0
16.07.2018 10:00:00 16,7 12,4 19,6 17,8 18,8 16,9 5 3 7 4 SSW 55 30 0,0
16.07.2018 09:00:00 14,7 12,6 15,8 17,9 18,9 16,9 4 2 6 4 E 54 0 0,0
16.07.2018 08:00:00 13,0 11,8 12,9 18,1 19,0 16,9 4 2 8 4 SE 41 0 0,0
16.07.2018 07:00:00 12,3 11,4 12,1 18,4 19,1 16,9 5 3 10 5 SSW 43 0 0,0
16.07.2018 06:00:00 11,0 10,5 10,7 18,6 19,2 16,9 0 0 9 5 N 9 0 0,0
16.07.2018 05:00:00 12,6 11,8 12,4 18,8 19,4 16,9 5 3 13 7 SSW 32 0 0,0
16.07.2018 04:00:00 12,7 12,0 12,7 19,1 19,5 16,9 6 3 10 6 S 16 0 0,0
16.07.2018 03:00:00 12,4 11,9 12,4 19,4 19,6 16,9 3 2 14 8 W 22 0 0,0
16.07.2018 02:00:00 12,7 11,7 12,5 19,7 19,7 16,9 9 5 15 8 SSE 48 0 0,0
16.07.2018 01:00:00 12,2 11,4 12,1 20,0 19,7 16,9 7 4 11 6 SSE 36 0 0,0
16.07.2018 00:00:00 12,2 11,7 12,0 20,4 19,8 16,9 6 3 9 5 S 34 0 0,0
15.07.2018 23:00:00 12,7 11,6 11,6 20,8 19,8 16,8 0 0 17 9 N 56 0 0,0
15.07.2018 22:00:00 14,1 11,8 13,2 21,2 19,7 16,8 10 6 30 16 SSE 70 0 0,0
15.07.2018 21:00:00 14,8 12,6 14,1 21,4 19,6 16,8 20 11 53 29 SSE 61 0 5,6
15.07.2018 20:00:00 14,9 12,9 14,9 21,5 19,5 16,8 23 12 46 25 S 1,3 0 3,7
15.07.2018 19:00:00 19,1 15,4 19,2 21,5 19,4 16,8 12 6 17 9 SE 41 0 0,0
15.07.2018 18:00:00 19,7 15,1 20,6 21,3 19,3 16,8 15 8 22 12 SE 54 11 0,0
15.07.2018 17:00:00 20,8 13,9 24,9 21,0 19,2 16,8 18 10 32 17 SSE 41 38 0,1
15.07.2018 16:00:00 19,7 15,4 20,1 20,7 19,1 16,8 12 6 19 10 SSE 20 7 0,0
15.07.2018 15:00:00 24,1 11,7 30,1 20,3 19,1 16,8 5 3 14 8 S 42 25 0,0
15.07.2018 14:00:00 21,8 11,2 25,2 19,8 19,1 16,8 10 5 21 12 N 60 38 0,0
15.07.2018 13:00:00 23,0 12,9 29,3 19,4 19,1 16,7 9 5 18 10 NNW 55 32 0,0
15.07.2018 12:00:00 21,1 12,0 25,1 19,1 19,1 16,7 10 6 16 9 N 45 35 0,0
15.07.2018 11:00:00 19,6 13,2 22,4 19,0 19,2 16,7 2 1 13 7 SSW 38 33 0,0
15.07.2018 10:00:00 17,7 13,9 20,6 19,0 19,3 16,7 8 5 16 9 NNE 30 12 0,0
15.07.2018 09:00:00 16,8 14,1 17,5 19,1 19,4 16,7 9 5 18 10 N 27 3 0,0
15.07.2018 08:00:00 16,3 13,1 16,3 19,3 19,5 16,7 17 9 28 15 SSE 31 7 0,0
15.07.2018 07:00:00 14,4 13,1 13,9 19,5 19,7 16,7 4 2 12 6 SSW 16 0 1,5
15.07.2018 06:00:00 14,9 12,4 14,8 19,8 19,8 16,7 8 4 11 6 SSE 23 0 0,0
15.07.2018 05:00:00 15,4 11,7 14,5 20,1 19,9 16,7 10 5 15 8 S 32 0 0,0
15.07.2018 04:00:00 14,0 12,0 13,5 20,4 19,9 16,6 9 5 21 11 S 23 0 0,0
15.07.2018 03:00:00 13,6 11,3 12,0 20,8 20,0 16,6 4 2 10 5 S 25 0 0,0
15.07.2018 02:00:00 14,0 12,0 13,3 21,2 20,0 16,6 7 4 10 6 SSE 23 0 0,0
15.07.2018 01:00:00 14,6 11,9 13,3 21,5 20,0 16,6 9 5 12 6 SSE 29 0 0,0
15.07.2018 00:00:00 14,6 11,8 13,0 21,9 19,9 16,6 6 3 11 6 SSE 27 0 0,0
14.07.2018 23:00:00 16,2 12,8 15,2 22,2 19,8 16,6 8 4 13 7 S 27 0 0,0
14.07.2018 22:00:00 17,2 12,9 16,3 22,4 19,7 16,6 8 4 12 7 ESE 34 0 0,0
14.07.2018 21:00:00 19,4 12,9 18,2 22,5 19,5 16,6 8 5 19 11 SE 39 8 0,0
14.07.2018 20:00:00 24,3 9,2 24,8 22,3 19,3 16,6 16 8 28 15 NNE 44 46 0,0
14.07.2018 19:00:00 25,7 9,1 27,4 22,0 19,2 16,6 15 8 23 13 NNW 45 39 0,0
14.07.2018 18:00:00 25,1 10,1 26,0 21,6 19,0 16,6 10 6 21 11 N 55 44 0,0
14.07.2018 17:00:00 26,6 10,0 30,5 21,1 18,9 16,6 10 5 18 10 NNW 53 58 0,0
14.07.2018 16:00:00 25,1 9,7 27,4 20,7 18,7 16,5 12 6 22 12 N 43 28 0,0
14.07.2018 15:00:00 25,3 10,2 27,5 20,3 18,6 16,5 6 3 23 12 S 49 27 0,0
14.07.2018 14:00:00 24,4 10,5 26,5 19,8 18,6 16,5 11 6 18 10 NNE 41 13 0,0
14.07.2018 13:00:00 23,6 11,5 24,6 19,3 18,6 16,5 13 7 27 15 N 45 30 0,0
14.07.2018 12:00:00 24,4 13,0 27,2 18,9 18,6 16,5 13 7 25 14 N 40 31 0,0
14.07.2018 11:00:00 21,7 12,2 24,2 18,6 18,7 16,5 8 4 15 8 S 34 39 0,0
14.07.2018 10:00:00 20,8 12,1 22,5 18,5 18,8 16,5 4 2 9 5 SSW 28 37 0,0
14.07.2018 09:00:00 18,7 11,9 20,4 18,5 18,9 16,5 6 3 13 7 SE 28 43 0,0
14.07.2018 08:00:00 15,6 11,7 15,4 18,7 19,0 16,5 7 4 12 7 E 34 18 0,0
14.07.2018 07:00:00 14,5 10,6 13,8 19,0 19,1 16,5 7 4 24 13 NNE 33 0 0,0
14.07.2018 06:00:00 13,4 11,0 13,1 19,3 19,2 16,5 5 3 14 8 S 28 0 0,0
14.07.2018 05:00:00 12,9 10,9 12,4 19,6 19,3 16,5 6 4 9 5 S 27 0 0,0
14.07.2018 04:00:00 11,9 10,3 11,4 20,0 19,4 16,4 7 4 9 5 SSE 25 0 0,0
14.07.2018 03:00:00 12,1 10,2 10,1 20,4 19,4 16,4 3 2 7 4 SW 25 0 0,0
14.07.2018 02:00:00 13,3 10,9 12,6 20,7 19,4 16,4 4 2 10 5 SSE 34 0 0,0
14.07.2018 01:00:00 13,3 10,5 12,6 21,1 19,4 16,4 5 3 13 7 SSE 33 0 0,0
14.07.2018 00:00:00 14,5 10,9 13,8 21,5 19,3 16,4 7 4 12 6 S 34 0 0,0
13.07.2018 23:00:00 16,4 10,3 15,5 21,9 19,2 16,4 8 5 14 8 SSE 43 0 0,0
13.07.2018 22:00:00 16,5 10,3 15,1 22,1 19,0 16,4 13 7 19 11 S 52 0 0,0
13.07.2018 21:00:00 17,8 10,1 16,6 22,2 18,8 16,4 12 7 16 8 SE 57 34 0,0
13.07.2018 20:00:00 23,6 8,2 23,7 22,1 18,5 16,4 11 6 22 12 N 70 59 0,0
13.07.2018 19:00:00 24,2 6,5 25,5 21,8 18,2 16,4 16 8 26 14 N 38 60 0,0

tt = Température de l'air
td = dewpoint
tt 5cm = Température de l'air 5cm
tt -5cm = Température de l'air -5cm
tt -20cm = Température de l'air -20cm
tt -100cm = Température de l'air -100cm
ff = Vitesse du vent
fx = gusts
dd = Direction du vent
vv = visibility
sd = Ensoleillement
rr = Quantités de précipitations

stations d'obs. à proximité